Date,TemperatureHighF,TemperatureAvgF,TemperatureLowF,DewpointHighF,DewpointAvgF,DewpointLowF,HumidityHigh,HumidityAvg,HumidityLow,PressureMaxIn,PressureMinIn,WindSpeedMaxMPH,WindSpeedAvgMPH,GustSpeedMaxMPH,PrecipitationSumIn
2013-1-1,18.3,6.0,-5.8,8.6,-6.4,-18.7,66,56,44,30.10,29.88,3,2,9,0.00
2013-1-2,20.1,15.1,11.7,13.3,6.2,3.2,75,67,64,29.93,29.80,6,1,11,0.00
2013-1-3,19.6,11.2,7.3,11.4,0.1,-6.2,70,60,49,30.10,29.92,8,5,17,0.00
2013-1-4,28.6,20.7,13.8,12.6,7.7,3.9,66,57,46,29.97,29.87,6,4,15,0.00
2013-1-5,22.6,15.8,10.6,8.6,4.5,0.9,65,60,52,29.94,29.71,8,3,14,0.00
2013-1-6,20.5,13.2,7.2,7.4,2.0,-3.4,71,60,49,30.06,29.86,7,4,13,0.00
2013-1-7,35.1,27.8,18.3,20.4,16.5,7.5,68,62,54,29.88,29.75,7,4,17,0.00
2013-1-8,35.2,27.4,19.4,24.6,18.5,10.9,72,69,61,29.84,29.08,7,3,14,0.00
2013-1-9,33.6,30.0,25.7,23.2,17.7,13.9,73,60,51,30.22,29.78,12,5,28,0.00
2013-1-10,39.4,33.3,26.6,28.7,21.8,15.7,82,63,45,30.15,29.60,4,2,14,0.30
2013-1-11,40.3,36.2,33.6,37.6,31.8,28.6,90,84,81,29.59,29.26,4,1,10,0.04
2013-1-12,37.9,14.3,3.0,35.3,2.6,-10.0,90,59,45,29.92,29.28,8,0,17,0.00
2013-1-13,3.9,1.9,0.0,-7.8,-11.3,-13.8,57,53,49,30.08,29.88,0,0,0,0.00
2013-1-14,13.1,7.5,3.9,-1.2,-5.0,-7.8,61,56,48,30.23,30.07,0,0,0,0.00
2013-1-15,30.7,20.4,10.6,14.6,7.1,0.9,64,56,43,30.12,29.71,0,0,0,0.00
2013-1-16,36.5,25.1,10.2,28.3,14.7,-6.8,83,65,40,30.06,29.54,11,4,22,0.01
2013-1-17,18.9,10.5,1.6,4.3,-5.4,-13.2,59,48,33,30.23,30.06,6,3,16,0.00
2013-1-18,42.1,30.5,16.0,28.6,19.9,4.3,73,64,57,30.12,29.61,5,3,14,0.00
2013-1-19,37.9,24.5,0.9,27.2,12.1,-16.2,76,59,37,30.07,29.55,23,8,39,0.00
2013-1-20,8.2,1.7,-3.6,-7.5,-15.4,-21.3,56,43,32,30.22,30.07,12,7,24,0.00
2013-1-21,-3.6,-7.9,-12.5,-20.8,-25.6,-31.8,50,40,34,30.16,30.08,11,7,24,0.00
2013-1-22,5.5,-3.9,-11.7,-11.1,-21.1,-27.3,50,42,34,30.21,30.06,6,2,11,0.00
2013-1-23,15.4,6.9,-4.9,1.1,-11.7,-30.7,64,43,22,30.40,29.98,13,5,26,0.00
2013-1-24,13.5,2.5,-7.1,-4.6,-19.3,-30.9,44,34,26,30.47,30.00,5,2,14,0.00
2013-1-25,18.9,11.6,2.1,5.7,-4.4,-11.6,57,48,39,30.13,29.80,15,6,26,0.00
2013-1-26,24.6,13.1,0.5,5.5,-3.7,-14.5,54,46,40,30.17,29.95,4,2,14,0.00
2013-1-27,32.0,29.8,23.7,26.7,18.6,5.5,82,65,42,29.95,29.66,4,1,12,0.12
2013-1-28,34.9,31.9,30.6,30.0,27.2,25.7,84,82,81,29.76,29.50,4,0,11,0.04
2013-1-29,33.8,31.4,27.1,28.8,25.2,16.3,85,78,63,29.60,29.39,9,2,15,0.07
2013-1-30,27.1,16.7,7.5,16.3,4.7,-6.1,67,58,50,29.61,29.48,10,8,20,0.00
2013-1-31,7.5,-1.3,-9.4,-5.2,-16.5,-27.4,56,47,39,30.09,29.61,12,9,25,0.00
2013-2-1,8.4,-2.6,-13.4,-2.9,-18.8,-29.0,59,45,33,30.13,29.86,9,2,17,0.00
2013-2-2,10.9,6.7,0.7,0.7,-6.5,-12.3,63,54,42,30.00,29.80,4,1,7,0.01
2013-2-3,12.9,9.4,3.2,1.6,-3.1,-9.2,65,56,43,29.93,29.78,10,4,21,0.00
2013-2-4,15.8,10.0,3.7,3.1,-4.4,-10.2,64,52,36,29.90,29.62,4,1,9,0.00
2013-2-5,28.6,21.1,9.0,21.4,11.0,-2.0,79,65,52,29.92,29.52,8,4,14,0.00
2013-2-6,31.1,18.2,4.3,19.7,8.0,-6.1,72,64,60,29.95,29.76,7,3,13,0.00
2013-2-7,25.5,24.2,19.9,18.5,16.0,12.7,76,70,62,30.09,29.81,7,4,12,0.00
2013-2-8,24.4,24.2,23.7,14.9,14.4,13.7,67,66,65,30.13,30.08,4,3,7,0.00
2013-2-9,31.5,28.8,27.3,23.7,21.6,19.5,78,74,72,29.92,29.92,4,3,13,0.00
2013-2-10,34.2,30.9,27.3,29.0,25.1,19.5,83,79,72,29.92,29.92,7,2,14,0.02
2013-2-11,30.0,23.1,15.4,25.8,14.2,4.8,84,68,58,29.92,29.92,0,0,0,0.00
2013-2-12,37.9,24.0,14.9,22.6,12.6,3.8,70,61,49,29.92,29.92,5,2,12,0.07
2013-2-13,42.1,28.7,17.4,28.0,18.8,8.2,82,67,50,29.97,29.92,5,2,10,0.21
2013-2-14,32.7,25.3,11.7,27.9,14.4,-4.7,84,65,35,29.97,29.97,5,0,11,0.01
2013-2-15,15.4,7.9,1.4,-2.5,-7.0,-11.4,61,50,40,29.97,29.97,8,3,16,0.00
2013-2-16,21.6,8.0,0.5,6.3,-5.1,-11.7,64,54,42,29.97,29.97,5,2,9,0.00
2013-2-17,32.7,21.1,7.7,18.8,8.6,-5.8,65,58,52,29.97,29.97,8,4,17,0.00
2013-2-18,32.7,21.9,3.2,27.3,11.3,-7.4,80,63,51,29.97,29.97,14,6,25,0.00
2013-2-19,3.7,0.1,-4.7,-6.6,-15.0,-21.1,61,48,38,29.97,29.97,14,10,27,0.00
2013-2-20,14.7,2.7,-10.5,-4.8,-14.3,-25.7,52,44,36,29.97,29.97,6,2,11,0.00
2013-2-21,20.8,12.9,3.2,3.7,-2.8,-9.9,55,49,42,29.97,29.97,3,1,9,0.00
2013-2-22,28.4,21.9,18.0,19.6,13.0,3.3,74,68,51,29.97,29.97,4,2,9,0.00
2013-2-23,25.7,19.1,14.7,14.2,9.3,3.8,70,65,59,29.97,29.97,4,2,8,0.00
2013-2-24,36.5,22.7,12.7,18.2,9.9,1.9,64,58,44,29.97,29.97,4,1,8,0.06
2013-2-25,37.8,28.1,22.6,21.9,17.2,13.7,73,64,48,29.97,29.97,3,1,5,0.04
2013-2-26,36.1,28.7,20.8,21.8,18.3,13.6,74,65,52,29.97,29.97,8,3,12,0.00
2013-2-27,38.1,30.8,26.6,20.9,18.0,15.0,69,59,44,29.97,29.97,10,6,15,0.00
2013-2-28,28.4,26.3,23.0,16.7,13.2,9.4,63,57,52,30.20,29.94,7,3,11,0.00
2013-3-1,30.0,23.7,17.1,12.7,8.3,2.9,59,51,42,30.22,30.01,6,2,10,0.00
2013-3-2,34.0,19.1,9.3,9.4,1.2,-5.9,65,47,24,30.25,30.12,3,1,7,0.00
2013-3-3,36.0,24.2,14.7,9.4,3.0,-3.7,49,40,25,30.13,29.84,8,4,14,0.00
2013-3-4,27.3,24.0,20.8,15.4,11.9,6.0,72,60,43,30.00,29.62,8,4,21,0.00
2013-3-5,29.3,24.9,20.8,18.7,15.9,11.5,73,68,59,30.25,29.78,6,2,11,0.00
2013-3-6,29.7,22.0,16.9,13.7,9.8,6.7,70,59,44,30.32,30.14,6,3,11,0.00
2013-3-7,36.1,21.6,13.6,16.6,9.2,4.5,67,59,42,30.27,30.12,6,3,12,0.02
2013-3-8,43.9,28.4,16.7,26.4,17.1,6.4,72,62,49,30.22,29.89,7,4,15,0.11
2013-3-9,36.5,34.5,32.7,30.8,28.8,22.8,81,79,66,30.04,29.63,7,3,15,0.81
2013-3-10,34.3,32.1,27.7,29.0,25.4,21.7,83,76,67,29.96,29.71,12,8,19,0.01
2013-3-11,29.3,26.0,19.2,21.7,16.1,7.7,78,66,52,29.83,29.52,8,6,16,0.01
2013-3-12,27.1,22.6,18.1,13.8,9.6,3.2,71,57,44,30.15,29.68,12,6,24,0.00
2013-3-13,30.7,19.5,9.7,11.1,5.7,-0.6,67,55,38,30.34,30.07,7,3,13,0.00
2013-3-14,47.1,30.7,22.3,27.0,18.3,10.9,73,60,41,30.19,29.97,6,2,11,0.07
2013-3-15,34.2,31.0,26.2,27.5,24.0,19.7,80,75,69,29.97,29.59,3,1,7,0.01
2013-3-16,27.1,20.5,11.5,19.3,7.6,-2.2,76,58,41,30.16,29.84,0,0,0,0.00
2013-3-17,30.7,18.1,6.3,14.3,1.0,-10.4,60,46,38,30.17,29.77,7,2,20,0.00
2013-3-18,29.7,20.3,9.5,23.8,9.1,-2.9,79,61,49,29.83,29.44,15,8,30,0.00
2013-3-19,21.2,10.7,3.9,-1.1,-7.9,-14.7,58,43,22,30.17,29.67,12,10,24,0.00
2013-3-20,18.7,10.4,4.1,-5.0,-10.5,-14.9,46,38,26,30.14,29.82,12,8,25,0.00
2013-3-21,28.2,15.3,4.6,1.6,-5.0,-10.4,50,40,23,30.07,29.86,5,2,10,0.00
2013-3-22,43.7,23.5,10.8,9.7,2.3,-4.4,54,41,20,30.12,29.89,3,2,7,0.00
2013-3-23,36.3,26.7,17.6,13.9,9.3,4.2,61,48,31,30.18,29.94,4,2,8,0.00
2013-3-24,34.0,27.9,23.2,18.1,15.5,13.2,70,60,44,30.10,29.79,7,4,11,0.00
2013-3-25,38.5,29.0,21.9,16.0,10.6,6.2,61,46,28,30.22,29.93,8,5,14,0.00
2013-3-26,37.8,27.4,20.7,18.0,12.8,9.4,66,55,40,30.33,30.07,6,4,11,0.00
2013-3-27,48.0,33.4,22.5,14.7,11.5,3.9,65,43,18,30.36,30.15,3,1,6,0.00
2013-3-28,46.9,35.0,25.5,22.8,16.7,9.5,62,47,33,30.34,30.16,3,1,8,0.00
2013-3-29,53.1,39.2,30.9,32.0,25.8,19.5,75,59,40,30.26,30.06,3,1,8,0.00
2013-3-30,51.8,41.3,33.1,38.2,32.6,27.9,83,71,58,30.06,29.83,6,3,13,0.06
2013-3-31,37.9,32.1,22.6,27.9,19.2,5.4,84,61,27,29.96,29.69,12,7,25,0.00
2013-4-1,33.1,24.1,16.2,11.2,6.6,2.1,56,47,33,30.26,29.96,10,6,19,0.00
2013-4-2,36.1,27.0,18.7,10.6,6.8,-1.0,66,44,22,30.35,30.13,7,4,14,0.00
2013-4-3,48.6,35.4,23.5,25.9,14.6,1.9,59,42,31,30.28,30.06,6,2,14,0.00
2013-4-4,49.1,40.9,32.4,30.4,23.6,17.5,72,51,29,30.14,29.91,8,4,21,0.00
2013-4-5,42.8,33.2,26.8,28.1,20.0,9.9,80,59,38,30.19,29.85,8,3,17,0.01
2013-4-6,56.3,41.9,34.3,41.1,31.6,25.2,85,67,52,29.93,29.45,8,4,21,0.18
2013-4-7,50.0,39.9,33.6,36.4,31.3,26.8,82,71,53,29.98,29.77,5,2,13,0.20
2013-4-8,48.7,42.2,38.5,42.5,36.9,34.4,87,82,71,29.96,29.58,6,2,12,0.13
2013-4-9,39.7,36.4,31.3,34.7,29.8,23.4,86,77,59,30.12,29.79,9,4,14,0.54
2013-4-10,35.4,32.0,27.7,27.2,23.4,19.2,82,71,53,30.08,29.74,3,1,11,0.12
2013-4-11,34.7,32.4,29.1,28.6,25.5,19.4,83,76,54,29.78,29.43,4,1,11,0.20
2013-4-12,34.2,30.1,26.4,26.1,23.9,20.7,83,78,70,29.85,29.54,7,2,12,0.04
2013-4-13,36.0,30.9,26.8,23.6,20.5,17.3,82,66,49,29.99,29.77,7,3,13,0.12
2013-4-14,35.6,31.7,29.1,30.4,24.7,19.4,82,75,63,29.86,29.42,7,2,16,0.00
2013-4-15,39.0,35.0,30.4,29.7,24.2,19.5,81,64,56,29.96,29.51,10,4,23,0.07
2013-4-16,44.6,36.6,31.1,24.4,22.5,20.0,71,57,42,30.33,29.87,9,4,16,0.00
2013-4-17,37.8,35.0,33.4,29.9,25.7,21.4,82,69,58,30.27,29.87,4,1,11,0.44
2013-4-18,34.3,31.6,29.8,29.4,27.0,25.6,84,83,81,29.86,29.24,6,1,11,0.02
2013-4-19,35.2,30.6,27.3,26.0,22.0,11.6,84,71,48,29.91,29.37,13,3,21,0.04
2013-4-20,46.2,32.4,21.0,17.6,9.8,2.5,66,42,17,30.28,29.91,5,2,8,0.00
2013-4-21,50.5,40.3,32.5,42.4,31.8,13.7,85,72,43,30.29,29.95,6,2,16,0.38
2013-4-22,39.2,34.8,30.9,34.6,29.1,26.4,84,80,67,30.21,29.84,6,2,10,0.09
2013-4-23,40.3,32.7,27.0,29.0,22.3,15.1,84,67,41,30.10,29.95,8,2,14,0.08
2013-4-24,50.2,36.0,25.2,30.8,22.8,15.6,79,60,31,30.02,29.84,7,3,15,0.00
2013-4-25,51.1,39.7,30.6,28.1,24.5,15.0,75,57,24,30.18,29.92,9,3,19,0.00
2013-4-26,72.0,57.6,42.1,42.1,35.0,26.9,64,45,26,30.20,29.89,6,3,16,0.01
2013-4-27,77.5,62.2,46.2,46.2,38.3,29.3,77,44,21,30.19,30.00,4,2,11,0.00
2013-4-28,81.9,63.4,50.0,51.9,45.1,37.4,79,56,21,30.00,29.78,9,3,17,0.11
2013-4-29,77.5,62.7,50.2,55.5,48.1,35.7,85,61,34,29.85,29.68,5,2,10,0.00
2013-4-30,70.5,63.2,56.3,57.9,43.9,19.8,86,53,19,30.02,29.51,10,4,20,0.00
2013-5-1,56.3,38.3,32.5,40.7,34.5,31.4,99,88,43,30.45,30.00,8,3,16,0.34
2013-5-2,44.4,36.7,32.2,33.7,28.6,23.5,99,75,47,30.45,30.20,8,3,14,0.22
2013-5-3,37.2,33.1,30.0,31.4,27.7,22.1,93,82,57,30.36,29.83,8,5,13,0.07
2013-5-4,50.0,39.6,32.0,43.7,36.6,29.7,99,90,73,30.25,29.88,6,3,10,0.01
2013-5-5,64.9,50.8,37.9,46.8,41.1,36.0,94,72,46,30.28,30.09,4,3,9,0.00
2013-5-6,74.7,61.5,45.9,49.2,45.1,40.4,95,60,32,30.16,30.03,3,2,8,0.00
2013-5-7,81.5,67.5,55.6,50.5,45.4,33.2,74,49,18,30.15,30.07,3,2,8,0.00
2013-5-8,80.1,66.0,57.6,55.6,48.9,42.2,93,57,27,30.14,30.04,3,1,9,0.26
2013-5-9,58.1,52.8,43.3,55.1,48.6,28.7,95,86,57,30.18,29.97,10,4,16,0.05
2013-5-10,67.8,52.5,37.6,33.6,23.2,7.7,65,38,10,30.13,29.95,6,3,9,0.00
2013-5-11,55.6,47.0,40.6,39.3,22.9,8.3,68,41,18,30.23,29.92,12,8,26,0.00
2013-5-12,57.4,44.9,33.6,25.8,17.1,6.6,64,37,14,30.30,30.08,9,4,16,0.00
2013-5-14,99.0,82.3,64.0,53.2,37.7,16.3,52,24,10,29.90,29.61,12,6,27,0.00
2013-5-15,78.1,65.5,55.0,50.6,44.6,40.2,70,48,30,30.05,29.90,9,3,17,0.01
2013-5-16,87.3,72.4,59.5,48.9,40.3,26.6,58,34,15,30.08,29.98,4,2,10,0.00
2013-5-17,67.8,56.6,53.6,56.6,50.7,27.6,99,85,22,30.02,29.90,5,3,13,0.48
2013-5-18,83.1,65.5,54.5,68.3,58.7,53.1,99,82,49,30.17,29.92,4,2,14,0.41
2013-5-19,82.8,70.1,62.2,68.8,64.5,57.7,97,84,54,29.86,29.64,5,1,29,1.08
2013-5-20,71.2,64.7,57.4,63.0,58.7,54.0,98,82,59,29.68,29.56,5,1,11,0.57
2013-5-21,66.0,58.8,52.3,60.4,55.0,50.8,99,88,64,29.66,29.51,2,1,6,0.01
2013-5-22,52.3,49.3,46.6,51.0,48.7,46.3,99,98,92,29.77,29.56,5,3,10,0.31
2013-5-23,65.1,53.7,44.1,48.2,35.5,25.6,91,54,25,30.19,29.77,5,3,9,0.00
2013-5-24,72.5,55.9,41.5,49.2,38.4,28.6,89,55,28,30.19,30.03,3,1,11,0.21
2013-5-25,60.4,53.9,51.3,50.0,47.3,41.7,94,79,61,30.31,30.01,6,2,15,0.05
2013-5-26,55.4,52.2,49.5,48.8,44.2,39.8,82,74,62,30.27,30.08,6,3,15,0.00
2013-5-27,56.7,54.3,52.2,55.8,51.8,47.8,98,91,80,30.08,29.82,4,2,14,0.19
2013-5-28,59.0,54.9,52.0,58.3,54.4,51.4,99,98,97,29.89,29.67,3,1,8,0.09
2013-5-29,75.2,63.8,53.6,70.5,61.7,52.8,99,93,77,29.84,29.68,3,1,9,0.37
2013-5-30,78.8,68.1,62.8,65.5,62.4,60.1,98,83,57,29.77,29.61,4,2,14,0.37
2013-5-31,80.1,68.5,61.2,61.0,55.8,45.3,92,67,31,29.71,29.59,4,2,17,0.06
2013-6-1,71.2,59.2,50.7,60.7,52.1,42.2,92,77,59,29.97,29.64,7,2,14,0.06
2013-6-2,65.7,56.1,48.4,43.6,39.3,35.1,76,55,35,30.12,29.93,6,2,12,0.00
2013-6-3,71.6,62.0,51.3,45.2,41.4,37.2,65,48,31,30.09,29.93,3,1,9,0.00
2013-6-4,62.8,58.4,53.4,54.4,49.1,45.0,85,72,56,30.11,30.00,4,2,12,0.02
2013-6-5,66.2,56.9,53.1,58.8,53.6,48.4,98,89,73,30.07,29.88,4,1,8,0.06
2013-6-6,55.4,52.9,50.4,53.0,51.4,50.1,99,95,90,30.03,29.90,3,1,4,0.00
2013-6-7,66.0,57.9,52.2,53.6,51.1,48.8,98,79,58,30.04,29.92,2,0,3,0.00
2013-6-8,71.1,63.0,55.2,55.2,52.1,49.8,86,69,50,30.02,29.86,2,1,9,0.00
2013-6-9,68.4,60.3,55.4,62.8,57.6,54.4,97,91,78,30.02,29.76,4,2,17,0.74
2013-6-10,75.6,65.5,59.4,65.1,60.5,58.3,99,85,61,29.95,29.88,2,0,6,0.00
2013-6-11,81.3,68.7,59.9,69.4,63.4,57.9,94,84,64,30.02,29.86,3,0,5,0.02
2013-6-12,69.3,66.3,63.3,67.2,63.2,53.9,98,90,67,30.02,29.83,4,2,10,0.44
2013-6-13,80.1,68.0,57.4,55.6,52.3,48.8,75,58,38,30.22,30.01,4,2,6,0.00
2013-6-14,79.7,69.6,58.5,59.6,55.8,50.5,78,63,47,30.21,30.01,4,1,11,0.04
2013-6-15,76.5,68.5,63.5,69.0,63.7,59.8,97,85,70,30.13,30.00,4,1,13,0.19
2013-6-16,84.2,72.1,62.4,62.8,52.2,36.9,87,53,20,30.11,30.00,8,2,20,0.01
2013-6-17,80.6,71.4,62.4,57.5,53.2,46.7,74,54,31,30.18,29.96,4,2,11,0.00
2013-6-18,79.9,66.9,56.8,61.1,54.9,50.4,81,66,45,30.18,30.12,2,1,9,0.00
2013-6-19,88.7,72.9,59.4,62.7,56.5,53.4,82,59,35,30.16,30.08,2,0,7,0.00
2013-6-20,91.6,79.3,69.1,67.4,61.4,56.5,72,56,38,30.15,30.03,3,1,9,0.00
2013-6-21,82.4,72.8,63.9,69.2,65.0,60.8,98,78,57,30.17,29.95,6,1,20,0.70
2013-6-22,85.5,71.6,63.9,72.7,66.7,60.3,99,86,62,30.15,29.75,4,1,9,0.66
2013-6-23,82.5,74.1,67.6,70.8,66.6,62.5,96,79,57,29.75,29.59,5,1,14,0.25
2013-6-24,84.2,72.5,67.4,72.0,66.3,63.1,92,81,61,29.76,29.65,3,0,7,0.13
2013-6-25,88.4,75.4,64.9,72.9,68.1,62.1,95,79,57,29.70,29.55,3,1,10,0.00
2013-6-26,85.8,77.2,71.1,74.5,68.9,62.3,97,77,52,29.69,29.54,5,2,24,0.00
2013-6-27,84.0,77.4,70.5,65.8,58.6,50.3,80,54,33,29.70,29.59,10,3,16,0.00
2013-6-28,75.9,69.9,63.6,63.8,57.9,54.6,98,67,54,29.68,29.59,9,4,15,0.12
2013-6-29,75.0,65.9,60.4,63.7,57.7,48.7,98,77,44,29.81,29.60,5,2,8,0.26
2013-6-30,80.7,68.3,57.6,54.8,49.7,45.0,74,54,30,30.02,29.82,4,1,7,0.00
2013-7-1,85.9,74.7,64.6,57.6,53.7,50.6,65,49,34,30.05,29.97,2,0,4,0.00
2013-7-2,84.5,72.3,60.1,55.6,52.5,47.6,69,51,33,30.05,29.91,3,1,6,0.00
2013-7-3,88.6,74.2,63.5,61.2,51.3,40.3,74,48,25,29.97,29.79,2,0,5,0.00
2013-7-4,90.1,75.7,62.8,62.0,56.4,52.9,79,54,29,29.85,29.72,2,0,5,0.00
2013-7-5,87.7,76.6,67.3,64.7,59.7,56.1,71,57,41,29.81,29.62,3,1,8,0.00
2013-7-6,90.4,78.7,70.2,66.2,62.2,59.8,72,58,40,29.72,29.61,3,1,6,0.00
2013-7-7,93.2,80.9,72.8,70.0,66.3,61.9,89,62,44,29.75,29.64,4,0,6,0.01
2013-7-8,88.7,77.5,68.7,70.5,68.1,64.2,95,75,48,29.85,29.70,2,1,4,0.00
2013-7-9,81.9,76.4,69.3,74.0,68.0,65.1,96,76,61,29.81,29.65,7,2,15,0.44
2013-7-10,78.3,70.5,60.6,65.1,56.4,51.1,88,63,40,29.93,29.74,5,2,8,0.00
2013-7-11,87.3,74.4,64.4,62.8,57.0,53.4,75,57,35,29.93,29.79,2,0,6,0.00
2013-7-12,90.2,77.5,66.6,63.6,59.0,55.4,72,54,38,29.89,29.73,3,1,8,0.00
2013-7-13,76.8,69.8,63.0,70.5,62.0,-99.9,99,79,54,29.98,29.81,4,-4,14,5.14
2013-7-14,88.3,73.0,67.3,66.9,56.1,-99.9,87,64,44,30.06,29.88,2,-50,5,0.00
2013-7-15,89.8,77.6,66.7,70.5,65.9,63.4,90,69,44,30.11,29.96,2,0,4,0.00
2013-7-16,92.6,81.9,72.7,72.9,69.9,67.2,93,69,46,30.11,29.97,2,0,4,0.00
2013-7-17,93.3,83.2,74.7,71.6,69.3,67.0,82,64,44,30.16,29.91,3,0,7,0.00
2013-7-18,92.7,83.6,75.1,71.1,69.2,67.2,82,63,45,29.97,29.58,3,1,8,0.00
2013-7-19,81.5,77.3,71.8,70.9,64.6,57.6,88,66,46,29.77,29.57,5,2,13,0.18
2013-7-20,80.5,71.9,64.6,65.0,61.1,57.2,84,70,53,29.85,29.75,3,1,4,0.00
2013-7-21,83.4,70.1,59.7,67.9,61.3,53.7,89,74,55,29.84,29.62,3,1,8,0.04
2013-7-22,85.3,73.5,65.1,72.4,64.6,56.8,95,75,54,29.73,29.51,5,2,9,0.00
2013-7-23,76.2,66.9,59.5,57.5,53.5,50.5,86,64,42,29.83,29.73,4,2,6,0.00
2013-7-24,78.9,65.5,59.4,61.1,54.7,50.7,78,69,49,29.87,29.75,2,0,5,0.00
2013-7-25,77.6,77.5,77.3,63.7,63.4,63.0,63,62,61,29.73,29.72,1,0,2,0.00
2013-7-26,64.0,60.3,56.9,51.5,48.5,45.1,73,65,59,29.89,29.77,5,3,10,0.01
2013-7-27,61.6,55.4,50.9,51.1,47.2,43.4,92,74,53,29.89,29.77,7,2,12,0.01
2013-7-28,68.8,59.1,49.3,52.6,48.8,44.6,91,70,53,29.87,29.72,4,2,6,0.00
2013-7-29,80.4,66.7,55.8,58.3,53.8,50.9,86,65,40,29.93,29.81,1,0,4,0.00
2013-7-30,73.2,66.5,61.7,64.7,60.6,54.4,93,82,67,29.97,29.84,2,0,4,0.02
2013-7-31,77.1,68.0,60.7,68.7,61.0,51.5,99,81,49,29.94,29.79,5,1,9,0.07
2013-8-1,82.6,75.7,61.3,58.2,54.6,51.1,74,49,38,29.85,29.71,2,1,4,0.00
2013-8-2,70.0,66.5,65.1,52.2,51.2,50.3,62,58,52,29.85,29.83,1,1,2,0.00
2013-8-3,76.5,67.4,57.9,56.0,51.2,46.8,80,58,39,30.06,29.84,3,1,5,0.00
2013-8-4,71.3,62.5,56.3,57.5,51.4,46.7,81,68,54,30.08,29.83,2,0,4,0.00
2013-8-5,75.0,66.8,60.1,68.4,62.7,53.9,98,87,75,29.84,29.56,3,0,4,0.71
2013-8-6,84.5,69.3,59.9,68.0,62.0,58.2,96,80,50,29.69,29.51,7,1,16,0.15
2013-8-7,73.5,65.6,59.9,60.9,55.3,48.4,99,72,43,29.88,29.68,4,2,6,0.00
2013-8-8,74.9,65.5,59.7,60.2,54.0,48.1,87,67,52,29.88,29.78,3,0,5,0.00
2013-8-9,73.4,65.6,59.0,59.9,54.7,49.2,97,71,45,29.96,29.82,5,2,8,0.00
2013-8-10,76.0,66.8,59.5,56.8,53.5,50.8,85,64,43,29.99,29.91,3,0,4,0.00
2013-8-11,81.3,68.8,61.9,65.5,61.6,53.3,93,79,55,29.95,29.75,2,0,3,0.00
2013-8-12,76.4,68.8,60.8,64.5,57.5,51.2,97,70,43,29.92,29.83,4,2,6,0.00
2013-8-13,74.6,64.9,55.8,54.9,49.5,44.2,91,61,36,30.06,29.85,3,1,5,0.00
2013-8-14,76.9,65.7,56.3,53.1,49.0,44.2,76,56,38,30.06,29.93,3,1,5,0.00
2013-8-15,80.6,67.5,57.7,58.9,51.1,46.2,78,57,39,29.99,29.86,2,0,3,0.00
2013-8-16,81.6,68.7,59.9,59.8,54.5,51.0,85,63,37,30.05,29.95,2,1,4,0.00
2013-8-17,84.8,69.8,58.5,58.6,54.2,51.7,83,60,35,30.07,29.92,2,0,6,0.00
2013-8-18,84.4,70.0,59.9,61.1,56.7,54.0,81,65,41,29.99,29.86,2,0,6,0.00
2013-8-19,87.2,73.3,64.6,68.5,62.7,56.8,82,70,49,29.91,29.73,2,0,4,0.00
2013-8-20,89.9,77.5,68.3,72.1,67.9,63.6,86,74,51,29.81,29.61,2,0,7,0.00
2013-8-21,83.7,75.9,72.0,74.5,71.2,67.5,94,86,72,29.88,29.65,2,0,5,0.13
2013-8-22,87.3,75.1,66.0,73.5,59.3,51.2,95,61,37,29.98,29.78,3,1,7,0.00
2013-8-23,89.1,72.8,60.8,66.6,60.4,50.8,83,66,44,30.00,29.89,2,1,7,0.00
2013-8-24,88.3,77.4,68.9,71.3,67.7,63.7,84,73,54,29.95,29.72,4,2,15,0.00
2013-8-25,95.4,83.1,75.6,73.4,70.8,68.5,81,68,46,29.88,29.74,3,1,8,0.00
2013-8-26,95.3,83.6,76.8,74.3,72.4,71.0,83,70,48,29.90,29.64,2,1,6,0.00
2013-8-27,95.2,83.3,74.8,77.1,72.0,69.7,85,70,48,29.79,29.62,2,1,4,0.00
2013-8-28,92.7,79.9,71.4,76.7,71.3,68.6,96,77,47,29.88,29.72,2,1,6,0.00
2013-8-29,96.0,81.5,74.1,75.3,71.0,64.8,95,73,40,29.90,29.68,2,0,6,0.00
2013-8-30,82.3,76.0,70.0,71.5,66.5,61.0,92,73,54,29.81,29.70,4,2,6,0.00
2013-8-31,90.5,73.8,63.1,69.2,64.8,61.0,95,76,43,29.77,29.59,4,1,9,0.08
2013-9-1,72.1,67.6,62.4,67.8,60.2,54.9,94,78,60,29.82,29.62,5,2,9,0.00
2013-9-2,62.9,57.9,52.0,53.8,51.5,50.2,97,80,66,29.89,29.80,4,1,6,0.00
2013-9-3,76.9,64.1,53.5,56.8,53.4,49.4,90,70,46,29.85,29.73,2,0,3,0.00
2013-9-4,87.0,73.0,64.2,67.8,61.9,56.3,82,69,51,30.04,29.81,2,1,4,0.00
2013-9-5,87.3,71.6,60.3,67.1,61.1,54.2,87,71,46,30.07,29.96,3,1,10,0.00
2013-9-6,91.0,76.8,68.0,71.1,65.0,61.0,95,70,39,29.99,29.72,3,1,8,0.04
2013-9-7,91.9,78.8,69.8,72.2,65.8,61.7,88,66,45,29.89,29.75,3,1,8,0.00
2013-9-8,79.9,70.9,64.6,66.2,63.1,60.0,87,77,60,29.93,29.70,4,2,10,0.00
2013-9-9,91.7,78.0,67.3,74.7,67.9,63.7,96,74,47,29.76,29.47,3,2,7,0.02
2013-9-10,79.1,73.0,66.7,70.0,64.4,61.9,93,75,57,29.85,29.64,4,1,7,0.00
2013-9-11,83.1,73.0,65.1,63.2,56.4,47.5,86,59,33,29.93,29.83,5,2,9,0.00
2013-9-12,71.9,63.7,55.2,52.8,48.8,43.0,85,60,37,29.98,29.89,6,3,9,0.00
2013-9-15,57.6,53.6,49.9,50.9,48.4,46.0,87,82,78,30.23,30.17,2,1,4,0.94
2013-9-16,70.3,53.2,41.7,49.3,43.9,40.9,99,74,40,30.23,29.98,2,1,6,0.01
2013-9-17,65.1,55.3,45.9,57.6,49.6,41.8,96,82,63,30.08,29.66,5,1,14,0.00
2013-9-18,73.8,67.3,59.2,69.7,65.2,57.7,99,93,82,29.74,29.47,3,1,8,0.11
2013-9-19,75.9,69.9,63.7,70.6,65.6,55.3,95,86,72,29.63,29.46,7,2,17,0.19
2013-9-20,63.4,56.8,50.2,55.5,50.5,46.3,97,80,61,29.84,29.56,6,3,15,0.00
2013-9-21,62.8,52.7,45.1,49.0,46.0,44.1,99,79,51,29.86,29.67,3,2,4,0.00
2013-9-22,76.8,58.9,45.7,54.1,49.3,43.0,93,73,44,29.79,29.59,4,2,11,0.00
2013-9-23,75.6,61.0,51.4,53.1,49.6,46.7,86,68,43,29.75,29.60,4,2,11,0.00
2013-9-24,79.5,61.4,49.8,55.1,50.5,47.2,92,70,39,29.77,29.64,3,1,8,0.00
2013-9-25,77.4,61.5,51.6,55.8,50.7,48.1,91,70,40,29.79,29.62,3,1,7,0.00
2013-9-26,82.7,66.6,54.7,59.1,54.8,49.5,85,68,44,29.77,29.61,5,2,14,0.00
2013-9-27,83.5,71.9,64.0,61.9,59.4,57.7,82,66,45,29.76,29.57,6,2,15,0.09
2013-9-28,69.3,61.1,51.0,63.1,54.9,43.6,98,81,68,29.76,29.49,9,2,20,1.33
2013-9-29,77.1,59.6,48.4,48.7,43.8,40.5,78,59,30,29.86,29.57,3,1,8,0.00
2013-9-30,79.0,65.4,55.9,51.4,48.6,45.4,73,56,36,29.62,29.39,3,2,12,0.00
2013-10-1,74.4,66.4,60.9,52.1,37.3,15.3,69,39,11,29.78,29.42,7,3,11,0.00
2013-10-2,76.9,63.7,53.8,54.0,37.6,28.3,92,42,21,29.88,29.61,6,2,13,0.24
2013-10-3,58.8,57.2,55.8,58.5,56.7,53.6,99,98,92,29.71,29.54,3,1,11,0.13
2013-10-4,57.2,56.0,54.7,56.9,55.6,53.8,99,99,97,29.78,29.61,4,1,12,0.37
2013-10-5,60.2,53.5,45.9,59.9,50.6,41.4,99,90,73,29.65,29.48,5,1,14,0.07
2013-10-6,53.4,47.3,43.7,49.8,44.6,40.0,99,91,79,29.67,29.39,5,1,9,0.05
2013-10-7,63.1,51.8,42.7,48.0,41.9,37.6,98,72,39,29.84,29.54,4,2,8,0.00
2013-10-8,74.4,60.8,48.4,47.6,43.9,40.3,80,56,32,29.77,29.57,5,2,10,0.00
2013-10-9,73.9,62.8,54.5,52.1,48.0,45.1,78,59,40,29.85,29.73,3,1,10,0.00
2013-10-10,75.9,62.1,51.3,53.1,47.6,43.1,78,61,39,29.85,29.67,5,1,9,0.00
2013-10-11,73.4,63.7,53.1,59.6,52.4,48.5,89,68,46,29.69,29.39,8,3,23,0.12
2013-10-12,57.6,51.0,46.1,54.4,40.5,32.5,90,69,42,29.96,29.54,9,3,19,0.00
2013-10-13,57.6,47.6,37.8,39.2,34.1,30.0,83,61,35,30.22,29.97,4,1,8,0.00
2013-10-14,53.8,48.3,42.4,46.5,37.2,32.0,92,66,51,30.19,29.67,7,2,16,0.38
2013-10-15,52.5,48.7,45.7,52.0,48.0,44.9,99,97,92,29.67,29.35,7,2,16,0.67
2013-10-16,50.9,45.3,43.0,44.9,39.5,30.6,98,82,58,29.69,29.53,5,2,10,0.01
2013-10-17,57.0,45.2,38.8,45.3,37.9,30.6,99,77,45,29.64,29.40,6,2,15,0.04
2013-10-18,50.7,42.7,36.9,41.3,33.7,26.5,99,74,39,29.74,29.55,5,3,12,0.01
2013-10-19,45.5,38.3,33.5,38.6,32.4,25.4,91,80,59,29.73,29.42,7,2,12,0.04
2013-10-20,47.5,37.9,32.9,41.8,31.7,24.7,92,79,66,29.61,29.19,9,2,14,0.04
2013-10-21,36.7,33.5,30.0,31.8,20.9,15.7,87,60,45,29.76,29.48,10,4,18,0.01
2013-10-22,38.7,33.0,26.2,29.7,24.4,18.8,84,71,61,29.82,29.55,4,2,6,0.00
2013-10-23,36.8,33.3,29.8,28.2,22.2,16.2,82,65,45,29.90,29.59,7,3,11,0.00
2013-10-24,41.5,35.4,30.8,27.2,23.3,17.5,78,61,48,30.16,29.81,7,3,11,0.00
2013-10-25,56.3,41.6,26.8,38.2,30.0,20.3,82,65,45,30.13,29.47,7,2,15,0.00
2013-10-26,50.7,41.5,34.3,38.2,28.1,23.1,71,59,47,29.91,29.55,10,5,18,0.00
2013-10-27,57.6,42.5,31.1,31.7,27.3,22.6,72,56,33,29.88,29.49,5,2,8,0.00
2013-10-28,42.1,35.8,30.9,28.9,22.6,17.1,74,59,44,30.21,29.88,4,1,8,0.00
2013-10-29,43.2,37.0,30.7,33.7,26.3,17.3,84,65,57,30.13,29.66,4,1,8,0.02
2013-10-30,50.9,44.8,38.1,50.4,43.6,33.7,98,95,84,29.82,29.29,4,1,8,0.12
2013-10-31,50.9,41.5,38.3,50.4,40.4,36.6,99,96,89,29.41,28.99,6,3,12,0.01
2013-11-1,49.8,41.9,37.2,38.5,35.8,30.1,98,80,55,29.60,29.14,6,3,12,0.00
2013-11-2,47.3,39.2,32.4,35.2,29.4,26.3,86,69,45,29.88,29.58,5,2,11,0.00
2013-11-3,53.1,43.3,33.8,33.6,29.4,25.4,75,59,39,29.88,29.65,7,3,17,0.00
2013-11-4,46.9,44.1,38.7,42.9,35.5,31.5,88,72,57,29.89,29.50,6,2,13,0.15
2013-11-5,43.2,37.2,32.2,33.3,28.7,25.2,88,72,59,30.07,29.54,7,2,11,0.02
2013-11-6,35.2,31.3,28.1,29.5,25.5,20.2,91,79,62,29.96,29.67,2,0,4,0.00
2013-11-7,32.4,29.6,27.0,27.2,24.1,19.8,87,80,72,29.98,29.70,0,0,0,0.01
2013-11-8,45.0,36.1,26.6,38.3,26.7,20.4,82,69,51,29.91,29.18,7,2,13,0.06
2013-11-9,44.8,38.9,33.3,38.3,26.9,-99.9,79,66,53,29.94,29.34,17,-16,29,0.00
2013-11-10,39.9,36.5,32.2,27.8,25.1,21.8,69,63,58,30.09,29.88,9,2,15,0.00
2013-11-11,36.9,23.9,14.6,28.0,9.1,0.0,82,53,37,30.53,29.92,9,5,14,0.00
2013-11-12,26.1,17.6,9.1,8.0,2.8,-1.7,66,52,33,30.56,29.95,5,2,9,0.00
2013-11-13,49.1,35.5,21.6,31.7,19.3,5.8,62,51,43,30.18,29.49,7,3,13,0.00
2013-11-14,48.6,39.4,33.8,34.6,28.8,22.1,73,66,56,29.62,29.39,5,2,8,0.00
2013-11-15,55.7,43.5,34.5,37.1,32.5,26.8,78,66,45,29.57,29.34,6,2,10,0.00
2013-11-16,51.3,45.2,40.8,49.0,40.3,30.9,92,83,62,29.38,28.97,6,2,11,0.11
2013-11-17,42.8,38.7,30.7,38.5,32.4,21.5,92,78,68,29.56,29.00,16,7,25,0.01
2013-11-18,34.7,29.3,25.0,22.3,17.1,14.1,71,60,49,30.03,29.53,14,6,23,0.00
2013-11-19,45.5,34.0,22.1,27.6,21.6,14.2,73,61,44,29.98,29.42,5,3,17,0.00
2013-11-20,43.5,40.3,36.3,30.5,25.9,20.2,78,57,40,29.77,29.50,7,3,21,0.00
2013-11-21,36.7,29.5,22.3,31.4,23.6,11.8,87,78,62,30.25,29.72,7,4,16,0.00
2013-11-22,30.0,20.9,12.2,11.6,5.2,-3.5,67,52,28,30.39,29.98,9,4,16,0.00
2013-11-23,16.0,9.7,4.5,-2.2,-7.1,-11.2,61,46,29,30.64,30.33,9,4,15,0.00
2013-11-24,29.1,17.0,5.5,9.3,-0.2,-10.3,53,46,38,30.60,29.56,10,4,17,0.00
2013-11-25,38.5,32.0,25.2,24.3,17.3,8.3,68,55,47,29.80,29.51,11,6,20,0.00
2013-11-26,29.3,19.5,12.4,16.0,-1.1,-11.6,58,40,27,30.20,29.74,14,7,19,0.00
2013-11-27,23.7,15.6,7.3,5.6,0.1,-5.1,63,50,40,30.10,29.55,6,2,11,0.00
2013-11-28,27.0,21.1,15.8,7.4,5.2,0.9,54,50,41,29.97,29.76,8,3,12,0.00
2013-11-29,34.1,23.9,14.9,15.9,9.0,1.3,63,53,40,30.00,29.79,5,2,11,0.00
2013-11-30,37.2,30.7,25.3,22.6,18.6,13.9,72,61,52,29.89,29.52,4,2,9,0.00
2013-12-1,34.5,28.5,22.8,23.1,18.0,14.4,74,65,56,29.57,29.32,3,0,6,0.00
2013-12-2,39.0,33.0,27.7,30.0,25.8,18.0,83,75,65,29.32,28.94,6,2,11,0.11
2013-12-3,34.9,33.4,31.5,30.5,29.2,27.8,86,84,83,29.17,28.95,2,0,6,0.02
2013-12-4,31.5,26.9,10.6,27.8,22.2,2.2,86,82,67,29.15,28.82,0,0,0,0.00
2013-12-5,10.3,3.7,-2.4,0.5,-7.9,-15.5,64,58,51,29.76,29.15,0,0,0,0.00
2013-12-6,1.3,-5.0,-8.9,-12.9,-18.5,-23.2,54,51,45,30.06,29.73,0,0,0,0.00
2013-12-7,0.3,-6.9,-12.5,-16.5,-21.9,-26.5,53,47,39,30.13,29.98,0,0,0,0.00
2013-12-8,14.2,7.2,-2.4,3.3,-4.1,-16.6,65,59,49,30.28,29.83,0,0,0,0.00
2013-12-9,10.0,-1.4,-6.2,-0.1,-15.0,-20.5,63,51,42,29.88,29.51,0,0,0,0.00
2013-12-10,14.5,6.8,0.4,4.7,-5.7,-14.2,68,56,45,29.93,29.39,0,0,0,0.00
2013-12-11,7.6,-4.5,-9.9,-6.7,-20.8,-26.2,52,44,39,30.33,29.92,0,0,0,0.00
2013-12-12,18.5,11.4,0.1,5.8,-1.7,-15.3,61,55,47,30.02,29.69,0,0,0,0.00
2013-12-13,16.0,13.0,10.0,3.1,1.4,-1.4,63,59,52,29.96,29.64,0,0,0,0.00
2013-12-14,13.8,8.5,-1.6,1.7,-3.5,-16.1,64,57,48,30.03,29.56,0,0,0,0.00
2013-12-15,3.3,0.4,-2.9,-11.2,-15.7,-17.5,51,46,41,29.93,29.66,3,0,17,0.00
2013-12-16,23.7,10.5,0.3,15.0,-1.6,-17.3,73,57,42,29.88,29.34,5,2,11,0.00
2013-12-17,30.7,22.7,13.5,21.6,10.7,1.0,71,60,45,29.94,29.52,15,7,30,0.00
2013-12-18,37.4,25.0,10.0,23.6,13.7,-0.7,69,62,52,29.81,29.22,7,3,15,0.01
2013-12-19,27.8,18.6,15.8,17.2,6.6,2.3,67,59,50,29.80,29.47,8,3,11,0.00
2013-12-20,19.0,16.7,15.6,6.7,5.7,4.6,64,61,58,29.75,29.30,6,2,8,0.00
2013-12-21,21.6,17.9,14.4,10.3,7.5,4.1,65,63,60,29.72,29.56,7,2,9,0.00
2013-12-22,17.8,11.5,-0.6,7.7,0.6,-13.8,65,61,52,30.05,29.62,9,5,15,0.00
2013-12-23,-0.2,-5.4,-9.9,-13.2,-20.7,-26.6,54,46,40,30.32,29.94,10,6,15,0.00
2013-12-24,9.3,-1.4,-14.3,-2.9,-17.5,-30.3,59,46,32,30.26,29.63,6,3,17,0.00
2013-12-25,27.8,16.0,8.6,18.3,5.4,-3.1,73,63,50,29.87,29.54,12,4,21,0.00
2013-12-26,27.8,20.7,13.5,17.0,11.2,2.9,73,66,61,29.95,29.76,4,1,7,0.00
2013-12-27,39.0,30.7,22.3,26.3,21.9,15.0,78,70,55,29.91,29.56,8,4,15,0.08
2013-12-28,45.0,33.0,21.6,28.7,24.1,14.3,83,70,50,29.78,29.27,14,4,20,0.04
2013-12-29,21.4,-1.5,-13.5,13.9,-19.9,-32.7,74,41,25,30.10,29.78,15,6,21,0.00
2013-12-30,3.3,-5.0,-13.7,-11.0,-20.2,-30.6,53,47,40,30.08,29.74,4,1,6,0.00
2013-12-31,-0.1,-6.3,-11.0,-15.4,-21.2,-26.7,53,47,42,30.18,29.90,4,2,8,0.00
2014-1-1,1.4,-3.7,-9.8,-15.8,-21.2,-26.9,45,42,39,30.33,30.10,4,2,6,0.00
2014-1-2,1.6,-4.8,-10.3,-18.5,-24.7,-32.2,48,37,24,30.36,30.13,5,2,8,0.00